sensor_id;sensor_type;location;lat;lon;timestamp;P1;durP1;ratioP1;P2;durP2;ratioP2
23490;SDS011;14683;50.038;8.078;2023-11-21T02:57:09;8.43;;;6.50;;
23490;SDS011;14683;50.038;8.078;2023-11-21T03:00:10;9.30;;;7.43;;
23490;SDS011;14683;50.038;8.078;2023-11-21T03:03:13;9.88;;;7.43;;
23490;SDS011;14683;50.038;8.078;2023-11-21T03:06:15;7.45;;;6.72;;
23490;SDS011;14683;50.038;8.078;2023-11-21T03:09:16;8.40;;;6.70;;
23490;SDS011;14683;50.038;8.078;2023-11-21T03:12:18;7.82;;;6.22;;
23490;SDS011;14683;50.038;8.078;2023-11-21T03:15:20;6.78;;;6.07;;
23490;SDS011;14683;50.038;8.078;2023-11-21T03:18:21;6.80;;;6.13;;
23490;SDS011;14683;50.038;8.078;2023-11-21T03:21:26;6.05;;;5.20;;
23490;SDS011;14683;50.038;8.078;2023-11-21T03:24:27;5.30;;;4.80;;
23490;SDS011;14683;50.038;8.078;2023-11-21T03:27:28;6.05;;;5.15;;
23490;SDS011;14683;50.038;8.078;2023-11-21T03:30:29;5.28;;;4.78;;
23490;SDS011;14683;50.038;8.078;2023-11-21T03:33:30;4.80;;;4.40;;
23490;SDS011;14683;50.038;8.078;2023-11-21T03:36:31;4.55;;;4.15;;
23490;SDS011;14683;50.038;8.078;2023-11-21T03:39:32;5.13;;;4.72;;
23490;SDS011;14683;50.038;8.078;2023-11-21T03:42:33;4.32;;;4.03;;
23490;SDS011;14683;50.038;8.078;2023-11-21T03:45:34;5.55;;;5.05;;
23490;SDS011;14683;50.038;8.078;2023-11-21T03:48:36;4.35;;;4.05;;
23490;SDS011;14683;50.038;8.078;2023-11-21T03:51:37;3.65;;;3.25;;
23490;SDS011;14683;50.038;8.078;2023-11-21T03:54:38;4.35;;;3.95;;
23490;SDS011;14683;50.038;8.078;2023-11-21T03:57:41;5.00;;;4.57;;
23490;SDS011;14683;50.038;8.078;2023-11-21T04:00:42;5.82;;;5.22;;
23490;SDS011;14683;50.038;8.078;2023-11-21T04:03:43;5.57;;;5.05;;
23490;SDS011;14683;50.038;8.078;2023-11-21T04:06:44;5.20;;;4.70;;
23490;SDS011;14683;50.038;8.078;2023-11-21T04:09:45;7.25;;;5.05;;
23490;SDS011;14683;50.038;8.078;2023-11-21T04:12:47;6.00;;;5.47;;
23490;SDS011;14683;50.038;8.078;2023-11-21T04:15:49;6.85;;;6.18;;
23490;SDS011;14683;50.038;8.078;2023-11-21T04:18:50;6.55;;;5.95;;
23490;SDS011;14683;50.038;8.078;2023-11-21T04:21:51;5.75;;;5.22;;
23490;SDS011;14683;50.038;8.078;2023-11-21T04:24:52;6.20;;;5.60;;
23490;SDS011;14683;50.038;8.078;2023-11-21T04:27:53;6.20;;;5.15;;
23490;SDS011;14683;50.038;8.078;2023-11-21T04:30:54;7.00;;;5.88;;
23490;SDS011;14683;50.038;8.078;2023-11-21T04:33:56;6.75;;;6.05;;
23490;SDS011;14683;50.038;8.078;2023-11-21T04:36:57;6.38;;;5.78;;
23490;SDS011;14683;50.038;8.078;2023-11-21T04:39:58;8.35;;;6.00;;
23490;SDS011;14683;50.038;8.078;2023-11-21T04:42:59;7.35;;;6.00;;
23490;SDS011;14683;50.038;8.078;2023-11-21T04:46:00;6.43;;;5.82;;
23490;SDS011;14683;50.038;8.078;2023-11-21T04:49:03;6.75;;;6.10;;
23490;SDS011;14683;50.038;8.078;2023-11-21T04:52:04;6.90;;;6.18;;
23490;SDS011;14683;50.038;8.078;2023-11-21T04:55:05;6.90;;;6.20;;
23490;SDS011;14683;50.038;8.078;2023-11-21T04:58:11;6.47;;;5.88;;
23490;SDS011;14683;50.038;8.078;2023-11-21T05:01:14;6.80;;;6.10;;
23490;SDS011;14683;50.038;8.078;2023-11-21T05:04:15;3.83;;;3.53;;
23490;SDS011;14683;50.038;8.078;2023-11-21T05:07:16;3.50;;;3.25;;
23490;SDS011;14683;50.038;8.078;2023-11-21T05:10:17;3.67;;;3.38;;
23490;SDS011;14683;50.038;8.078;2023-11-21T05:13:19;4.00;;;3.33;;
23490;SDS011;14683;50.038;8.078;2023-11-21T05:16:21;4.38;;;2.95;;
23490;SDS011;14683;50.038;8.078;2023-11-21T05:19:22;4.10;;;3.25;;
23490;SDS011;14683;50.038;8.078;2023-11-21T05:22:26;3.67;;;3.38;;
23490;SDS011;14683;50.038;8.078;2023-11-21T05:25:28;3.53;;;3.22;;
23490;SDS011;14683;50.038;8.078;2023-11-21T05:28:29;4.18;;;3.67;;
23490;SDS011;14683;50.038;8.078;2023-11-21T05:31:30;5.05;;;3.42;;
23490;SDS011;14683;50.038;8.078;2023-11-21T05:34:31;3.92;;;3.60;;
23490;SDS011;14683;50.038;8.078;2023-11-21T05:37:32;3.80;;;3.50;;
23490;SDS011;14683;50.038;8.078;2023-11-21T05:40:34;3.85;;;3.53;;
23490;SDS011;14683;50.038;8.078;2023-11-21T05:43:35;3.55;;;3.20;;
23490;SDS011;14683;50.038;8.078;2023-11-21T05:46:36;3.58;;;3.28;;
23490;SDS011;14683;50.038;8.078;2023-11-21T05:49:37;4.63;;;3.63;;
23490;SDS011;14683;50.038;8.078;2023-11-21T05:52:38;4.25;;;3.47;;
23490;SDS011;14683;50.038;8.078;2023-11-21T05:55:40;4.40;;;3.67;;
23490;SDS011;14683;50.038;8.078;2023-11-21T05:58:42;4.25;;;3.85;;
23490;SDS011;14683;50.038;8.078;2023-11-21T06:01:43;5.15;;;4.45;;
23490;SDS011;14683;50.038;8.078;2023-11-21T06:04:44;5.32;;;4.53;;
23490;SDS011;14683;50.038;8.078;2023-11-21T06:07:46;5.15;;;4.22;;
23490;SDS011;14683;50.038;8.078;2023-11-21T06:10:47;4.68;;;4.00;;
23490;SDS011;14683;50.038;8.078;2023-11-21T06:13:50;4.10;;;3.70;;
23490;SDS011;14683;50.038;8.078;2023-11-21T06:16:51;3.58;;;3.28;;
23490;SDS011;14683;50.038;8.078;2023-11-21T06:19:53;4.50;;;3.00;;
23490;SDS011;14683;50.038;8.078;2023-11-21T06:22:54;3.83;;;3.53;;
23490;SDS011;14683;50.038;8.078;2023-11-21T06:25:55;3.85;;;3.53;;
23490;SDS011;14683;50.038;8.078;2023-11-21T06:28:57;3.65;;;3.35;;
23490;SDS011;14683;50.038;8.078;2023-11-21T06:31:59;3.38;;;3.08;;
23490;SDS011;14683;50.038;8.078;2023-11-21T06:35:00;4.43;;;4.03;;
23490;SDS011;14683;50.038;8.078;2023-11-21T06:38:01;4.00;;;3.60;;
23490;SDS011;14683;50.038;8.078;2023-11-21T06:41:03;3.67;;;3.38;;
23490;SDS011;14683;50.038;8.078;2023-11-21T06:44:05;3.55;;;3.25;;
23490;SDS011;14683;50.038;8.078;2023-11-21T06:47:06;4.30;;;3.38;;
23490;SDS011;14683;50.038;8.078;2023-11-21T06:50:07;3.80;;;3.50;;
23490;SDS011;14683;50.038;8.078;2023-11-21T06:53:12;4.30;;;3.90;;
23490;SDS011;14683;50.038;8.078;2023-11-21T06:56:17;4.13;;;3.80;;
23490;SDS011;14683;50.038;8.078;2023-11-21T06:59:19;3.83;;;3.53;;
23490;SDS011;14683;50.038;8.078;2023-11-21T07:02:20;3.85;;;3.60;;
23490;SDS011;14683;50.038;8.078;2023-11-21T07:05:22;4.63;;;4.10;;
23490;SDS011;14683;50.038;8.078;2023-11-21T07:08:23;4.05;;;3.75;;
23490;SDS011;14683;50.038;8.078;2023-11-21T07:11:24;4.00;;;3.70;;
23490;SDS011;14683;50.038;8.078;2023-11-21T07:14:26;4.32;;;3.50;;
23490;SDS011;14683;50.038;8.078;2023-11-21T07:17:27;3.20;;;3.00;;
23490;SDS011;14683;50.038;8.078;2023-11-21T07:20:28;3.67;;;3.38;;
23490;SDS011;14683;50.038;8.078;2023-11-21T07:23:31;3.88;;;3.58;;
23490;SDS011;14683;50.038;8.078;2023-11-21T07:26:32;4.60;;;4.20;;
23490;SDS011;14683;50.038;8.078;2023-11-21T07:29:34;4.72;;;4.32;;
23490;SDS011;14683;50.038;8.078;2023-11-21T07:32:35;4.40;;;4.00;;
23490;SDS011;14683;50.038;8.078;2023-11-21T07:35:36;4.90;;;4.40;;
23490;SDS011;14683;50.038;8.078;2023-11-21T07:38:41;4.78;;;4.38;;
23490;SDS011;14683;50.038;8.078;2023-11-21T07:41:42;4.80;;;3.60;;
23490;SDS011;14683;50.038;8.078;2023-11-21T07:44:48;4.70;;;3.08;;
23490;SDS011;14683;50.038;8.078;2023-11-21T07:47:50;2.95;;;2.75;;
23490;SDS011;14683;50.038;8.078;2023-11-21T07:50:52;3.38;;;3.13;;
23490;SDS011;14683;50.038;8.078;2023-11-21T07:53:53;3.35;;;3.05;;
23490;SDS011;14683;50.038;8.078;2023-11-21T07:56:54;3.42;;;2.90;;
23490;SDS011;14683;50.038;8.078;2023-11-21T07:59:55;6.60;;;6.03;;
23490;SDS011;14683;50.038;8.078;2023-11-21T08:02:56;4.40;;;3.22;;
23490;SDS011;14683;50.038;8.078;2023-11-21T08:05:58;2.63;;;2.30;;
23490;SDS011;14683;50.038;8.078;2023-11-21T08:09:00;3.50;;;3.03;;
23490;SDS011;14683;50.038;8.078;2023-11-21T08:12:02;2.88;;;2.67;;
23490;SDS011;14683;50.038;8.078;2023-11-21T08:15:04;2.33;;;2.13;;
23490;SDS011;14683;50.038;8.078;2023-11-21T08:18:06;2.60;;;2.40;;
23490;SDS011;14683;50.038;8.078;2023-11-21T08:21:08;3.58;;;3.00;;
23490;SDS011;14683;50.038;8.078;2023-11-21T08:24:09;3.67;;;3.33;;
23490;SDS011;14683;50.038;8.078;2023-11-21T08:27:11;4.93;;;3.60;;
23490;SDS011;14683;50.038;8.078;2023-11-21T08:30:16;8.20;;;7.18;;
23490;SDS011;14683;50.038;8.078;2023-11-21T08:33:20;4.20;;;2.55;;
23490;SDS011;14683;50.038;8.078;2023-11-21T08:36:21;3.38;;;2.03;;
23490;SDS011;14683;50.038;8.078;2023-11-21T08:39:26;3.45;;;2.42;;
23490;SDS011;14683;50.038;8.078;2023-11-21T08:42:27;3.13;;;2.60;;
23490;SDS011;14683;50.038;8.078;2023-11-21T08:45:30;3.47;;;2.40;;
23490;SDS011;14683;50.038;8.078;2023-11-21T08:48:35;2.63;;;2.22;;
23490;SDS011;14683;50.038;8.078;2023-11-21T08:51:37;1.80;;;1.70;;
23490;SDS011;14683;50.038;8.078;2023-11-21T08:54:39;1.70;;;1.60;;
23490;SDS011;14683;50.038;8.078;2023-11-21T08:57:43;1.67;;;1.45;;
23490;SDS011;14683;50.038;8.078;2023-11-21T09:00:45;2.15;;;1.73;;
23490;SDS011;14683;50.038;8.078;2023-11-21T09:03:46;2.65;;;1.60;;
23490;SDS011;14683;50.038;8.078;2023-11-21T09:06:48;1.80;;;1.70;;
23490;SDS011;14683;50.038;8.078;2023-11-21T09:09:49;2.35;;;1.25;;
23490;SDS011;14683;50.038;8.078;2023-11-21T09:12:51;3.58;;;1.73;;
23490;SDS011;14683;50.038;8.078;2023-11-21T09:15:52;2.83;;;1.63;;
23490;SDS011;14683;50.038;8.078;2023-11-21T09:18:53;2.47;;;1.67;;
23490;SDS011;14683;50.038;8.078;2023-11-21T09:21:55;2.80;;;1.77;;
23490;SDS011;14683;50.038;8.078;2023-11-21T09:24:58;6.15;;;3.78;;
23490;SDS011;14683;50.038;8.078;2023-11-21T09:27:59;8.27;;;5.75;;
23490;SDS011;14683;50.038;8.078;2023-11-21T09:31:00;5.00;;;2.90;;
23490;SDS011;14683;50.038;8.078;2023-11-21T09:34:04;6.57;;;3.80;;
23490;SDS011;14683;50.038;8.078;2023-11-21T09:37:07;3.47;;;2.47;;
23490;SDS011;14683;50.038;8.078;2023-11-21T09:40:10;2.95;;;1.88;;
23490;SDS011;14683;50.038;8.078;2023-11-21T09:43:17;3.72;;;1.95;;
23490;SDS011;14683;50.038;8.078;2023-11-21T09:46:18;2.60;;;2.08;;
23490;SDS011;14683;50.038;8.078;2023-11-21T09:49:22;4.15;;;2.20;;
23490;SDS011;14683;50.038;8.078;2023-11-21T09:52:26;4.20;;;2.15;;
23490;SDS011;14683;50.038;8.078;2023-11-21T09:55:28;4.22;;;2.00;;
23490;SDS011;14683;50.038;8.078;2023-11-21T09:58:30;4.80;;;2.10;;
23490;SDS011;14683;50.038;8.078;2023-11-21T10:01:32;3.00;;;2.40;;
23490;SDS011;14683;50.038;8.078;2023-11-21T10:04:34;3.03;;;2.30;;
23490;SDS011;14683;50.038;8.078;2023-11-21T10:07:35;4.10;;;2.05;;
23490;SDS011;14683;50.038;8.078;2023-11-21T10:10:37;4.18;;;2.17;;
23490;SDS011;14683;50.038;8.078;2023-11-21T10:13:39;5.60;;;2.25;;
23490;SDS011;14683;50.038;8.078;2023-11-21T10:16:41;4.53;;;2.30;;
23490;SDS011;14683;50.038;8.078;2023-11-21T10:19:42;2.15;;;1.88;;
23490;SDS011;14683;50.038;8.078;2023-11-21T10:22:44;2.45;;;2.15;;
23490;SDS011;14683;50.038;8.078;2023-11-21T10:25:45;3.67;;;2.22;;
23490;SDS011;14683;50.038;8.078;2023-11-21T10:28:59;3.20;;;2.33;;
23490;SDS011;14683;50.038;8.078;2023-11-21T10:32:03;6.93;;;3.10;;
23490;SDS011;14683;50.038;8.078;2023-11-21T10:35:06;6.05;;;3.15;;
23490;SDS011;14683;50.038;8.078;2023-11-21T10:38:10;6.18;;;3.15;;
23490;SDS011;14683;50.038;8.078;2023-11-21T10:41:11;4.30;;;3.28;;
23490;SDS011;14683;50.038;8.078;2023-11-21T10:44:16;6.13;;;3.42;;
23490;SDS011;14683;50.038;8.078;2023-11-21T10:47:21;8.40;;;3.20;;
23490;SDS011;14683;50.038;8.078;2023-11-21T10:50:23;3.15;;;2.33;;
23490;SDS011;14683;50.038;8.078;2023-11-21T10:53:28;5.63;;;2.50;;
23490;SDS011;14683;50.038;8.078;2023-11-21T10:56:29;4.35;;;2.47;;
23490;SDS011;14683;50.038;8.078;2023-11-21T10:59:31;4.30;;;3.38;;
23490;SDS011;14683;50.038;8.078;2023-11-21T11:02:32;4.85;;;2.38;;
23490;SDS011;14683;50.038;8.078;2023-11-21T11:05:35;2.78;;;2.58;;
23490;SDS011;14683;50.038;8.078;2023-11-21T11:08:37;4.13;;;2.30;;
23490;SDS011;14683;50.038;8.078;2023-11-21T11:11:41;2.90;;;2.10;;
23490;SDS011;14683;50.038;8.078;2023-11-21T11:14:44;4.43;;;2.30;;
23490;SDS011;14683;50.038;8.078;2023-11-21T11:17:46;5.20;;;2.42;;
23490;SDS011;14683;50.038;8.078;2023-11-21T11:20:47;4.72;;;2.60;;
23490;SDS011;14683;50.038;8.078;2023-11-21T11:33:07;4.93;;;2.40;;
23490;SDS011;14683;50.038;8.078;2023-11-21T11:36:36;4.85;;;2.92;;
23490;SDS011;14683;50.038;8.078;2023-11-21T11:39:49;3.72;;;2.65;;
23490;SDS011;14683;50.038;8.078;2023-11-21T11:42:58;3.08;;;2.60;;
23490;SDS011;14683;50.038;8.078;2023-11-21T11:46:05;3.67;;;2.30;;
23490;SDS011;14683;50.038;8.078;2023-11-21T11:49:07;5.10;;;2.95;;
23490;SDS011;14683;50.038;8.078;2023-11-21T11:55:41;5.20;;;2.80;;
23490;SDS011;14683;50.038;8.078;2023-11-21T11:58:42;3.25;;;2.40;;
23490;SDS011;14683;50.038;8.078;2023-11-21T12:01:44;5.22;;;2.28;;
23490;SDS011;14683;50.038;8.078;2023-11-21T12:04:46;3.97;;;2.55;;
23490;SDS011;14683;50.038;8.078;2023-11-21T12:07:54;3.25;;;2.60;;
23490;SDS011;14683;50.038;8.078;2023-11-21T12:10:57;5.47;;;2.80;;
23490;SDS011;14683;50.038;8.078;2023-11-21T12:13:59;4.65;;;2.40;;
23490;SDS011;14683;50.038;8.078;2023-11-21T12:17:00;2.70;;;2.10;;
23490;SDS011;14683;50.038;8.078;2023-11-21T12:20:03;4.20;;;2.22;;
23490;SDS011;14683;50.038;8.078;2023-11-21T12:23:12;3.03;;;2.25;;
23490;SDS011;14683;50.038;8.078;2023-11-21T12:26:15;3.70;;;2.17;;
23490;SDS011;14683;50.038;8.078;2023-11-21T12:29:17;3.38;;;2.50;;
23490;SDS011;14683;50.038;8.078;2023-11-21T12:32:18;3.10;;;2.08;;
23490;SDS011;14683;50.038;8.078;2023-11-21T12:35:20;3.42;;;2.42;;
23490;SDS011;14683;50.038;8.078;2023-11-21T12:38:22;6.18;;;2.90;;
23490;SDS011;14683;50.038;8.078;2023-11-21T12:41:25;5.07;;;2.58;;
23490;SDS011;14683;50.038;8.078;2023-11-21T12:44:26;2.92;;;2.50;;
23490;SDS011;14683;50.038;8.078;2023-11-21T12:47:27;2.72;;;2.47;;
23490;SDS011;14683;50.038;8.078;2023-11-21T12:50:29;3.25;;;2.70;;
23490;SDS011;14683;50.038;8.078;2023-11-21T12:53:34;3.17;;;2.65;;
23490;SDS011;14683;50.038;8.078;2023-11-21T12:56:39;4.13;;;3.10;;
23490;SDS011;14683;50.038;8.078;2023-11-21T12:59:40;4.47;;;3.28;;
23490;SDS011;14683;50.038;8.078;2023-11-21T13:02:44;6.07;;;3.20;;
23490;SDS011;14683;50.038;8.078;2023-11-21T13:05:48;4.45;;;3.35;;
23490;SDS011;14683;50.038;8.078;2023-11-21T13:08:51;4.97;;;3.85;;
23490;SDS011;14683;50.038;8.078;2023-11-21T13:11:59;4.63;;;2.90;;
23490;SDS011;14683;50.038;8.078;2023-11-21T13:15:03;7.03;;;3.80;;
23490;SDS011;14683;50.038;8.078;2023-11-21T13:18:07;3.63;;;3.22;;
23490;SDS011;14683;50.038;8.078;2023-11-21T13:21:11;3.40;;;2.95;;
23490;SDS011;14683;50.038;8.078;2023-11-21T13:24:16;4.13;;;2.97;;
23490;SDS011;14683;50.038;8.078;2023-11-21T13:27:18;3.95;;;3.05;;
23490;SDS011;14683;50.038;8.078;2023-11-21T13:30:20;4.00;;;3.13;;
23490;SDS011;14683;50.038;8.078;2023-11-21T13:33:34;8.48;;;4.32;;
23490;SDS011;14683;50.038;8.078;2023-11-21T13:36:38;5.65;;;3.88;;
23490;SDS011;14683;50.038;8.078;2023-11-21T13:39:39;5.32;;;3.58;;
23490;SDS011;14683;50.038;8.078;2023-11-21T13:42:45;7.43;;;4.85;;
23490;SDS011;14683;50.038;8.078;2023-11-21T13:45:47;7.50;;;4.07;;
23490;SDS011;14683;50.038;8.078;2023-11-21T13:48:50;6.78;;;4.47;;
23490;SDS011;14683;50.038;8.078;2023-11-21T13:51:56;5.25;;;3.60;;
23490;SDS011;14683;50.038;8.078;2023-11-21T13:54:59;4.15;;;3.22;;
23490;SDS011;14683;50.038;8.078;2023-11-21T13:58:03;7.88;;;3.53;;
23490;SDS011;14683;50.038;8.078;2023-11-21T14:01:05;6.88;;;5.57;;
23490;SDS011;14683;50.038;8.078;2023-11-21T14:04:07;5.15;;;4.60;;
23490;SDS011;14683;50.038;8.078;2023-11-21T14:07:17;4.22;;;3.30;;
23490;SDS011;14683;50.038;8.078;2023-11-21T14:10:26;3.85;;;3.08;;
23490;SDS011;14683;50.038;8.078;2023-11-21T14:13:27;5.55;;;3.38;;
23490;SDS011;14683;50.038;8.078;2023-11-21T14:16:29;5.55;;;3.30;;
23490;SDS011;14683;50.038;8.078;2023-11-21T14:19:30;4.25;;;3.10;;
23490;SDS011;14683;50.038;8.078;2023-11-21T14:22:33;6.05;;;4.10;;
23490;SDS011;14683;50.038;8.078;2023-11-21T14:25:35;6.43;;;3.95;;
23490;SDS011;14683;50.038;8.078;2023-11-21T14:28:41;5.53;;;3.88;;
23490;SDS011;14683;50.038;8.078;2023-11-21T14:31:42;4.53;;;3.33;;
23490;SDS011;14683;50.038;8.078;2023-11-21T14:34:44;6.70;;;3.40;;
23490;SDS011;14683;50.038;8.078;2023-11-21T14:37:47;4.07;;;3.25;;
23490;SDS011;14683;50.038;8.078;2023-11-21T14:40:48;6.18;;;4.03;;
23490;SDS011;14683;50.038;8.078;2023-11-21T14:43:50;6.50;;;3.95;;
23490;SDS011;14683;50.038;8.078;2023-11-21T14:46:52;6.78;;;3.50;;
23490;SDS011;14683;50.038;8.078;2023-11-21T14:49:55;7.38;;;4.30;;
23490;SDS011;14683;50.038;8.078;2023-11-21T14:52:57;5.35;;;4.00;;
23490;SDS011;14683;50.038;8.078;2023-11-21T14:55:59;5.05;;;3.67;;
23490;SDS011;14683;50.038;8.078;2023-11-21T14:59:02;6.53;;;3.45;;
23490;SDS011;14683;50.038;8.078;2023-11-21T15:02:13;9.27;;;5.03;;
23490;SDS011;14683;50.038;8.078;2023-11-21T15:05:21;9.60;;;4.43;;
23490;SDS011;14683;50.038;8.078;2023-11-21T15:08:25;7.90;;;4.43;;
23490;SDS011;14683;50.038;8.078;2023-11-21T15:11:32;7.25;;;4.07;;
23490;SDS011;14683;50.038;8.078;2023-11-21T15:14:34;6.05;;;3.90;;
23490;SDS011;14683;50.038;8.078;2023-11-21T15:17:37;8.10;;;4.47;;
23490;SDS011;14683;50.038;8.078;2023-11-21T15:20:43;7.25;;;4.78;;
23490;SDS011;14683;50.038;8.078;2023-11-21T15:23:44;5.95;;;4.30;;
23490;SDS011;14683;50.038;8.078;2023-11-21T15:26:46;6.80;;;4.40;;
23490;SDS011;14683;50.038;8.078;2023-11-21T15:29:47;6.28;;;4.40;;
23490;SDS011;14683;50.038;8.078;2023-11-21T15:32:48;5.28;;;4.78;;
23490;SDS011;14683;50.038;8.078;2023-11-21T15:35:49;8.73;;;5.80;;
23490;SDS011;14683;50.038;8.078;2023-11-21T15:38:50;9.20;;;6.35;;
23490;SDS011;14683;50.038;8.078;2023-11-21T15:41:51;11.32;;;6.75;;
23490;SDS011;14683;50.038;8.078;2023-11-21T15:44:52;12.80;;;6.10;;
23490;SDS011;14683;50.038;8.078;2023-11-21T15:47:54;10.15;;;5.65;;
23490;SDS011;14683;50.038;8.078;2023-11-21T15:50:55;10.00;;;6.05;;
23490;SDS011;14683;50.038;8.078;2023-11-21T15:53:58;8.52;;;5.10;;
23490;SDS011;14683;50.038;8.078;2023-11-21T15:56:59;11.15;;;5.43;;
23490;SDS011;14683;50.038;8.078;2023-11-21T16:00:01;8.27;;;5.28;;
23490;SDS011;14683;50.038;8.078;2023-11-21T16:03:08;9.73;;;5.97;;
23490;SDS011;14683;50.038;8.078;2023-11-21T16:06:10;9.13;;;5.22;;
23490;SDS011;14683;50.038;8.078;2023-11-21T16:09:12;6.70;;;5.43;;
23490;SDS011;14683;50.038;8.078;2023-11-21T16:12:24;9.77;;;5.90;;
23490;SDS011;14683;50.038;8.078;2023-11-21T16:15:25;10.57;;;7.50;;
23490;SDS011;14683;50.038;8.078;2023-11-21T16:18:27;9.93;;;6.80;;
23490;SDS011;14683;50.038;8.078;2023-11-21T16:21:28;10.60;;;6.40;;
23490;SDS011;14683;50.038;8.078;2023-11-21T16:24:29;8.65;;;5.68;;
23490;SDS011;14683;50.038;8.078;2023-11-21T16:27:37;11.15;;;7.20;;
23490;SDS011;14683;50.038;8.078;2023-11-21T16:30:40;10.82;;;7.20;;
23490;SDS011;14683;50.038;8.078;2023-11-21T16:33:41;12.93;;;7.65;;
23490;SDS011;14683;50.038;8.078;2023-11-21T16:36:42;10.70;;;6.70;;
23490;SDS011;14683;50.038;8.078;2023-11-21T16:39:43;12.07;;;6.57;;
23490;SDS011;14683;50.038;8.078;2023-11-21T16:42:45;23.83;;;15.82;;
23490;SDS011;14683;50.038;8.078;2023-11-21T16:45:46;16.70;;;11.07;;
23490;SDS011;14683;50.038;8.078;2023-11-21T16:48:52;20.58;;;12.38;;
23490;SDS011;14683;50.038;8.078;2023-11-21T16:51:53;13.88;;;9.65;;
23490;SDS011;14683;50.038;8.078;2023-11-21T16:54:55;15.70;;;9.93;;
23490;SDS011;14683;50.038;8.078;2023-11-21T16:57:56;14.82;;;9.57;;
23490;SDS011;14683;50.038;8.078;2023-11-21T17:00:57;15.93;;;9.00;;
23490;SDS011;14683;50.038;8.078;2023-11-21T17:03:58;13.73;;;8.90;;
23490;SDS011;14683;50.038;8.078;2023-11-21T17:06:59;13.40;;;8.75;;
23490;SDS011;14683;50.038;8.078;2023-11-21T17:10:01;15.90;;;9.13;;
23490;SDS011;14683;50.038;8.078;2023-11-21T17:13:03;14.25;;;8.98;;
23490;SDS011;14683;50.038;8.078;2023-11-21T17:16:04;12.73;;;8.90;;
23490;SDS011;14683;50.038;8.078;2023-11-21T17:19:06;17.10;;;10.27;;
23490;SDS011;14683;50.038;8.078;2023-11-21T17:22:08;17.05;;;10.77;;
23490;SDS011;14683;50.038;8.078;2023-11-21T17:25:09;19.30;;;12.07;;
23490;SDS011;14683;50.038;8.078;2023-11-21T17:28:10;19.15;;;12.32;;
23490;SDS011;14683;50.038;8.078;2023-11-21T17:31:12;17.38;;;9.90;;
23490;SDS011;14683;50.038;8.078;2023-11-21T17:34:13;13.88;;;9.55;;
23490;SDS011;14683;50.038;8.078;2023-11-21T17:37:19;17.70;;;10.95;;
23490;SDS011;14683;50.038;8.078;2023-11-21T17:40:20;16.83;;;11.25;;
23490;SDS011;14683;50.038;8.078;2023-11-21T17:43:22;17.83;;;10.55;;
23490;SDS011;14683;50.038;8.078;2023-11-21T17:46:24;15.85;;;10.68;;
23490;SDS011;14683;50.038;8.078;2023-11-21T17:49:25;16.02;;;9.43;;
23490;SDS011;14683;50.038;8.078;2023-11-21T17:52:26;15.25;;;8.90;;
23490;SDS011;14683;50.038;8.078;2023-11-21T17:55:28;14.10;;;9.13;;
23490;SDS011;14683;50.038;8.078;2023-11-21T17:58:29;15.43;;;8.88;;
23490;SDS011;14683;50.038;8.078;2023-11-21T18:01:34;14.63;;;8.65;;
23490;SDS011;14683;50.038;8.078;2023-11-21T18:04:39;14.10;;;8.20;;
23490;SDS011;14683;50.038;8.078;2023-11-21T18:07:40;16.58;;;9.00;;
23490;SDS011;14683;50.038;8.078;2023-11-21T18:10:41;16.05;;;9.85;;
23490;SDS011;14683;50.038;8.078;2023-11-21T18:13:42;15.65;;;9.15;;
23490;SDS011;14683;50.038;8.078;2023-11-21T18:16:43;16.13;;;9.50;;
23490;SDS011;14683;50.038;8.078;2023-11-21T18:19:45;13.55;;;8.95;;
23490;SDS011;14683;50.038;8.078;2023-11-21T18:22:47;13.30;;;8.73;;
23490;SDS011;14683;50.038;8.078;2023-11-21T18:25:48;14.82;;;8.48;;
23490;SDS011;14683;50.038;8.078;2023-11-21T18:28:49;15.27;;;8.20;;
23490;SDS011;14683;50.038;8.078;2023-11-21T18:31:50;12.70;;;8.65;;
23490;SDS011;14683;50.038;8.078;2023-11-21T18:34:51;15.10;;;8.30;;
23490;SDS011;14683;50.038;8.078;2023-11-21T18:37:52;12.77;;;8.68;;
23490;SDS011;14683;50.038;8.078;2023-11-21T18:40:55;13.60;;;8.05;;
23490;SDS011;14683;50.038;8.078;2023-11-21T18:43:56;13.98;;;8.85;;
23490;SDS011;14683;50.038;8.078;2023-11-21T18:46:57;14.23;;;8.70;;
23490;SDS011;14683;50.038;8.078;2023-11-21T18:49:58;12.93;;;8.77;;
23490;SDS011;14683;50.038;8.078;2023-11-21T18:52:59;11.95;;;7.75;;
23490;SDS011;14683;50.038;8.078;2023-11-21T18:56:01;11.30;;;8.07;;
23490;SDS011;14683;50.038;8.078;2023-11-21T18:59:02;14.68;;;10.13;;
23490;SDS011;14683;50.038;8.078;2023-11-21T19:02:05;19.63;;;12.90;;
23490;SDS011;14683;50.038;8.078;2023-11-21T19:05:13;19.07;;;12.37;;
23490;SDS011;14683;50.038;8.078;2023-11-21T19:08:14;20.95;;;13.48;;
23490;SDS011;14683;50.038;8.078;2023-11-21T19:11:16;17.77;;;12.23;;
23490;SDS011;14683;50.038;8.078;2023-11-21T19:14:17;14.88;;;8.98;;
23490;SDS011;14683;50.038;8.078;2023-11-21T19:17:18;12.60;;;9.13;;
23490;SDS011;14683;50.038;8.078;2023-11-21T19:20:21;13.48;;;9.68;;
23490;SDS011;14683;50.038;8.078;2023-11-21T19:23:24;16.52;;;9.35;;
23490;SDS011;14683;50.038;8.078;2023-11-21T19:26:25;8.48;;;7.35;;
23490;SDS011;14683;50.038;8.078;2023-11-21T19:29:26;11.18;;;7.18;;
23490;SDS011;14683;50.038;8.078;2023-11-21T19:32:27;9.93;;;7.00;;
23490;SDS011;14683;50.038;8.078;2023-11-21T19:35:29;9.23;;;6.65;;
23490;SDS011;14683;50.038;8.078;2023-11-21T19:38:34;11.77;;;6.57;;
23490;SDS011;14683;50.038;8.078;2023-11-21T19:41:36;10.60;;;9.32;;
23490;SDS011;14683;50.038;8.078;2023-11-21T19:44:42;9.82;;;7.05;;
23490;SDS011;14683;50.038;8.078;2023-11-21T19:47:44;10.30;;;6.38;;
23490;SDS011;14683;50.038;8.078;2023-11-21T19:50:46;8.15;;;6.22;;
23490;SDS011;14683;50.038;8.078;2023-11-21T19:53:47;9.30;;;6.03;;
23490;SDS011;14683;50.038;8.078;2023-11-21T19:56:48;5.20;;;4.63;;
23490;SDS011;14683;50.038;8.078;2023-11-21T19:59:49;5.68;;;4.15;;
23490;SDS011;14683;50.038;8.078;2023-11-21T20:02:51;4.05;;;3.45;;
23490;SDS011;14683;50.038;8.078;2023-11-21T20:05:52;2.60;;;2.40;;
23490;SDS011;14683;50.038;8.078;2023-11-21T20:08:53;1.60;;;1.50;;
23490;SDS011;14683;50.038;8.078;2023-11-21T20:11:54;1.42;;;1.33;;
23490;SDS011;14683;50.038;8.078;2023-11-21T20:14:58;2.28;;;1.60;;
23490;SDS011;14683;50.038;8.078;2023-11-21T20:18:00;1.45;;;1.35;;
23490;SDS011;14683;50.038;8.078;2023-11-21T20:21:05;2.30;;;1.50;;
23490;SDS011;14683;50.038;8.078;2023-11-21T20:24:06;1.83;;;1.50;;
23490;SDS011;14683;50.038;8.078;2023-11-21T20:27:07;1.70;;;1.52;;
23490;SDS011;14683;50.038;8.078;2023-11-21T20:30:09;1.65;;;1.55;;
23490;SDS011;14683;50.038;8.078;2023-11-21T20:33:10;2.75;;;2.28;;
23490;SDS011;14683;50.038;8.078;2023-11-21T20:36:11;2.50;;;2.10;;
23490;SDS011;14683;50.038;8.078;2023-11-21T20:39:12;2.58;;;2.38;;
23490;SDS011;14683;50.038;8.078;2023-11-21T20:42:16;2.85;;;2.20;;
23490;SDS011;14683;50.038;8.078;2023-11-21T20:45:17;3.38;;;2.50;;
23490;SDS011;14683;50.038;8.078;2023-11-21T20:48:25;3.40;;;3.10;;
23490;SDS011;14683;50.038;8.078;2023-11-21T20:51:29;4.53;;;3.78;;
